Methuen, MA (01844)

5:45 AM EST on January 21, 2017 (GMT -0500)
Mystic Pond | | Change Station
Active Advisory: Storm Watch

Elev 131 ft 42.73 °N, 71.20 °W | Updated 5 minutes ago

Overcast
Overcast
36.3 °F
Feels Like 36 °F
N
2.0
Wind Variable Wind from SSW
Gusts 5.0 mph

Today
High -- | Low -- °F
--% Chance of Precip.
Yesterday
High -- | Low -- °F
Precip. -- in
Pressure 29.89 in
Visibility 2.5 miles
Clouds Overcast 300 ft
Windchill 36 °F
Dew Point 35 °F
Humidity 94%
Rainfall 0.00 in
Snow Depth Not available.
7:08 AM 4:44 PM
Last Quarter, 36% visible
METAR KLWM 210954Z AUTO VRB03KT 2 1/2SM BR OVC003 02/02 A2988 RMK AO2 SLP121 T00220022
Pressure 29.89 in
Visibility 2.5 miles
Clouds Overcast 300 ft
Windchill 36 °F
Dew Point 35 °F
Humidity 94%
Rainfall 0.00 in
Snow Depth Not available.
7:08 AM 4:44 PM
Last Quarter, 36% visible
METAR KLWM 210954Z AUTO VRB03KT 2 1/2SM BR OVC003 02/02 A2988 RMK AO2 SLP121 T00220022

Get Your Daily Forecast Email!

Thanks for signing up!

Be on the lookout for a verification email in your inbox.

You'll start receiving the daily forecast at 8 AM.

×

10-Day Weather Forecast

Almanac

Astronomy

Jan. 21, 2017 Rise Set
Actual Time
Civil Twilight
Nautical Twilight
Astronomical Twilight
Moon
Length of Visible Light
Length of Day
Tomorrow will be .
, % of the Moon is Illuminated

Today's Extremes

State Highs State Lows

Community

WunderPhotos

Upload Photos

1,962,540 photos uploaded!

WunderBlog® & News

Nearby

Air Quality

  Air Quality AQ Index Pollutant
Not available.

Snow Depth

Station Depth Elevation

Earthquake Activity

City Distance Mag. Time & Date
Minimum magnitude displayed is 2.5.

Coastal Water Temperatures

Place Temperature

Stations

Nearby Weather Stations

Station Location Temp. Windchill Dew Point Humidity Wind Precip. Elev Updated Type
                   

Watches & Warnings

Storm Watch
Issued: 4:03 AM EST Jan. 21, 2017 – National Weather Service

... Storm watch in effect from Monday afternoon through late
Monday night...
... Gale watch is cancelled...

The National Weather Service in Taunton has issued a storm
watch... which is in effect from Monday afternoon through late
Monday night. The gale watch has been cancelled.

* Winds and seas... east winds 30 to 40 kt with gusts up to 55
kt. Seas 11 to 16 feet.

Precautionary/preparedness actions...

A storm watch is issued when the risk of storm force winds of
48 to 63 knots has significantly increased... but the specific
timing and/or location is still uncertain. It is intended to
provide additional lead time for mariners who may wish to
consider altering their plans.